Time;durP1;ratioP1;P1;durP2;ratioP2;P2;SDS_P1;SDS_P2;PMS_P1;PMS_P2;Temp;Humidity;BMP_temperature;BMP_pressure;BME280_temperature;BME280_humidity;BME280_pressure;Samples;Min_cycle;Max_cycle;Signal;HPM_P1;HPM_P2
2021/10/29 00:00:11;;;;;;;58.90;31.83;;;6.20;99.90;;;4.52;100.00;98073.56;5088139;28;20567;-72
2021/10/29 00:02:38;;;;;;;56.90;29.90;;;6.10;99.90;;;4.59;100.00;98070.16;5086236;28;20871;-71
2021/10/29 00:05:06;;;;;;;50.73;30.40;;;6.00;99.90;;;4.43;100.00;98053.19;5086478;28;20464;-71
2021/10/29 00:07:34;;;;;;;58.00;30.03;;;6.00;99.90;;;4.42;100.00;98054.19;5090423;28;20445;-71
2021/10/29 00:10:01;;;;;;;66.83;31.00;;;5.90;99.90;;;4.58;100.00;98057.78;5089636;28;22234;-71
2021/10/29 00:12:28;;;;;;;53.93;29.00;;;6.00;99.90;;;4.61;100.00;98057.44;5094806;28;20532;-73
2021/10/29 00:14:57;;;;;;;49.67;31.00;;;6.00;99.90;;;4.63;100.00;98058.13;5089235;28;20559;-71
2021/10/29 00:17:24;;;;;;;47.87;29.27;;;6.00;99.90;;;4.83;100.00;98058.47;5090011;28;20454;-70
2021/10/29 00:19:51;;;;;;;42.77;27.20;;;6.20;99.90;;;4.72;100.00;98057.03;5088050;28;20475;-71
2021/10/29 00:22:18;;;;;;;48.17;28.27;;;6.20;99.90;;;4.70;100.00;98052.88;5087391;28;20456;-71
2021/10/29 00:24:45;;;;;;;41.93;27.20;;;6.10;99.90;;;4.64;100.00;98057.09;5087364;28;20554;-72
2021/10/29 00:27:13;;;;;;;41.83;26.33;;;6.10;99.90;;;4.40;100.00;98040.16;5087395;28;20460;-72
2021/10/29 00:29:40;;;;;;;49.00;30.10;;;6.00;99.90;;;4.62;100.00;98054.59;5086885;28;20872;-71
2021/10/29 00:32:09;;;;;;;43.83;25.70;;;6.00;99.90;;;4.18;100.00;98002.50;5122962;27;20514;-71
2021/10/29 00:34:36;;;;;;;38.40;25.83;;;6.00;99.90;;;4.71;100.00;98052.69;5089712;28;20810;-70
2021/10/29 00:37:03;;;;;;;37.13;23.87;;;6.10;99.90;;;4.56;100.00;98049.13;5086056;28;21494;-71
2021/10/29 00:39:30;;;;;;;38.03;26.20;;;6.00;99.90;;;4.50;100.00;98051.50;5086691;28;20470;-71
2021/10/29 00:41:58;;;;;;;36.67;25.57;;;6.00;99.90;;;4.49;100.00;98047.16;5087511;28;20931;-72
2021/10/29 00:44:27;;;;;;;60.17;26.20;;;6.00;99.90;;;4.32;100.00;98054.41;5093367;28;20914;-73
2021/10/29 00:46:55;;;;;;;38.83;24.93;;;5.90;99.90;;;4.22;100.00;98056.44;5088289;28;20477;-72
2021/10/29 00:49:23;;;;;;;41.83;26.10;;;5.70;99.90;;;4.27;100.00;98054.13;5090314;28;20468;-71
2021/10/29 00:51:52;;;;;;;38.87;24.63;;;5.70;99.90;;;4.33;100.00;98049.91;5087249;28;20553;-71
2021/10/29 00:54:20;;;;;;;40.43;24.90;;;5.80;99.90;;;4.19;100.00;98041.59;5090964;28;20492;-71
2021/10/29 00:56:49;;;;;;;39.40;26.47;;;5.70;99.90;;;3.98;100.00;98018.13;5087837;28;20525;-75
2021/10/29 00:59:18;;;;;;;41.70;26.67;;;5.60;99.90;;;4.20;100.00;98021.88;5081218;28;20461;-72
2021/10/29 01:01:46;;;;;;;40.83;26.47;;;5.70;99.90;;;4.25;100.00;98038.22;5088589;28;20483;-72
2021/10/29 01:04:13;;;;;;;63.90;28.37;;;5.70;99.90;;;3.71;100.00;97981.94;5089106;28;20784;-74
2021/10/29 01:06:43;;;;;;;63.67;27.37;;;5.60;99.90;;;4.04;100.00;98020.09;5085623;28;20826;-72
2021/10/29 01:09:10;;;;;;;49.13;27.27;;;5.60;99.90;;;4.22;100.00;98038.59;5087563;28;20479;-71
2021/10/29 01:11:38;;;;;;;40.70;27.73;;;5.60;99.90;;;4.31;100.00;98041.19;5084387;28;20532;-71
2021/10/29 01:14:05;;;;;;;55.00;27.77;;;5.70;99.90;;;4.37;100.00;98041.34;5089828;28;20471;-70
2021/10/29 01:16:33;;;;;;;41.13;26.30;;;5.70;99.90;;;4.39;100.00;98033.97;5091744;28;20509;-71
2021/10/29 01:19:00;;;;;;;38.80;27.10;;;5.80;99.90;;;4.38;100.00;98029.63;5089939;28;20579;-70
2021/10/29 01:21:28;;;;;;;51.77;25.10;;;5.80;99.90;;;4.25;100.00;98027.53;5089560;28;20504;-71
2021/10/29 01:23:55;;;;;;;43.63;27.47;;;5.70;99.90;;;4.29;100.00;98028.03;5086783;28;20448;-70
2021/10/29 01:26:22;;;;;;;39.90;27.03;;;5.70;99.90;;;4.46;100.00;98027.94;5087910;28;20456;-71
2021/10/29 01:28:49;;;;;;;42.53;24.83;;;5.80;99.90;;;4.61;100.00;98042.22;5081305;28;20437;-71
2021/10/29 01:31:17;;;;;;;38.77;26.50;;;5.80;99.90;;;4.50;100.00;98048.81;5087420;28;20524;-72
2021/10/29 01:33:45;;;;;;;39.60;24.30;;;5.90;99.90;;;4.41;100.00;98024.97;5090989;28;20984;-71
2021/10/29 01:36:12;;;;;;;35.83;24.23;;;5.90;99.90;;;4.37;100.00;98041.34;5086456;28;20597;-72
2021/10/29 01:38:43;;;;;;;42.13;25.70;;;5.80;99.90;;;4.26;100.00;98033.72;5087583;28;20537;-70
2021/10/29 01:41:12;;;;;;;36.43;24.50;;;5.70;99.90;;;4.35;100.00;98037.19;5088545;28;21018;-70
2021/10/29 01:43:40;;;;;;;34.90;23.73;;;5.70;99.90;;;4.22;100.00;98033.22;5087395;28;20463;-69
2021/10/29 01:46:08;;;;;;;47.03;26.57;;;5.70;99.90;;;3.94;100.00;98025.66;5090475;28;20592;-71
2021/10/29 01:48:41;;;;;;;38.30;24.77;;;5.60;99.90;;;3.89;100.00;98006.63;5088377;28;20444;-70
2021/10/29 01:51:08;;;;;;;38.33;24.70;;;5.50;99.90;;;4.14;100.00;98019.88;5088942;28;20902;-71
2021/10/29 01:53:35;;;;;;;42.60;25.20;;;5.60;99.90;;;3.94;100.00;98003.41;5088966;28;21121;-71
2021/10/29 01:56:04;;;;;;;36.67;24.57;;;5.60;99.90;;;4.01;100.00;98020.44;5088222;28;20547;-70
2021/10/29 01:58:32;;;;;;;37.63;24.00;;;5.50;99.90;;;3.94;100.00;98014.97;5088079;28;20928;-70
2021/10/29 02:00:59;;;;;;;50.00;25.77;;;5.40;99.90;;;3.85;100.00;98010.63;5086839;28;20562;-70
2021/10/29 02:03:26;;;;;;;36.60;24.57;;;5.40;99.90;;;3.86;100.00;98008.81;5087471;28;20828;-70
2021/10/29 02:05:53;;;;;;;41.00;26.27;;;5.30;99.90;;;3.90;100.00;98008.31;5089864;28;20459;-71
2021/10/29 02:08:24;;;;;;;44.80;26.60;;;5.30;99.90;;;3.95;100.00;97999.75;5085752;28;20560;-70
2021/10/29 02:10:51;;;;;;;39.33;25.43;;;5.30;99.90;;;4.06;100.00;97996.69;5084747;28;20992;-74
2021/10/29 02:13:20;;;;;;;40.00;26.40;;;5.40;99.90;;;4.05;100.00;97988.84;5083002;28;20449;-72
2021/10/29 02:15:48;;;;;;;36.40;25.07;;;5.50;99.90;;;3.99;100.00;97989.53;5088809;28;20814;-71
2021/10/29 02:18:16;;;;;;;35.67;23.20;;;5.50;99.70;;;3.89;100.00;98006.63;5087458;28;20446;-71
2021/10/29 02:20:44;;;;;;;36.77;25.10;;;5.40;99.10;;;3.82;100.00;97994.94;5088897;28;20482;-76
2021/10/29 02:23:11;;;;;;;33.67;24.40;;;5.40;98.90;;;3.71;100.00;97977.47;5089330;28;20455;-71
2021/10/29 02:25:39;;;;;;;35.30;23.60;;;5.30;99.30;;;3.79;100.00;97985.47;5083917;28;20544;-72
2021/10/29 02:28:06;;;;;;;33.93;24.23;;;5.30;99.20;;;3.66;100.00;97985.97;5084723;28;20452;-71
2021/10/29 02:30:35;;;;;;;32.67;23.50;;;5.20;97.50;;;3.61;100.00;97988.34;5084656;28;20580;-71
2021/10/29 02:33:01;;;;;;;32.33;23.60;;;5.20;97.20;;;3.47;100.00;97994.41;5086328;28;20547;-71
2021/10/29 02:35:28;;;;;;;34.53;22.53;;;5.00;97.40;;;3.43;100.00;97998.41;5084859;28;20467;-71
2021/10/29 02:37:56;;;;;;;29.83;21.50;;;5.00;98.30;;;3.46;100.00;98000.75;5087440;28;20486;-72
2021/10/29 02:40:23;;;;;;;30.33;22.30;;;4.90;99.50;;;3.47;100.00;97991.72;5087326;28;20529;-72
2021/10/29 02:42:50;;;;;;;36.13;22.73;;;4.90;98.50;;;3.66;100.00;97994.00;5087234;28;20488;-74
2021/10/29 02:45:17;;;;;;;32.40;23.20;;;5.00;99.90;;;3.76;99.50;97984.97;5084669;28;20963;-72
2021/10/29 02:47:47;;;;;;;33.10;22.40;;;5.10;97.40;;;3.67;100.00;97989.50;5086307;28;20488;-72
2021/10/29 02:50:15;;;;;;;33.50;22.33;;;5.10;97.80;;;3.58;100.00;97988.69;5084931;28;20889;-71
2021/10/29 02:52:42;;;;;;;30.67;21.90;;;5.10;96.80;;;3.65;100.00;97989.66;5089494;28;20483;-71
2021/10/29 02:55:10;;;;;;;30.90;21.80;;;5.10;97.30;;;3.77;98.98;97989.31;5089783;28;20461;-71
2021/10/29 02:57:37;;;;;;;28.80;20.10;;;5.20;96.00;;;3.72;98.13;97994.34;5088014;28;20821;-71
2021/10/29 03:00:08;;;;;;;22.20;17.77;;;5.20;94.40;;;3.59;97.95;97990.34;5089353;28;20442;-71
2021/10/29 03:02:36;;;;;;;23.30;18.83;;;5.10;94.20;;;3.51;98.67;97971.66;5086802;28;20581;-71
2021/10/29 03:05:06;;;;;;;23.70;18.43;;;5.00;94.30;;;3.40;98.13;97965.66;5092223;28;20499;-70
2021/10/29 03:07:33;;;;;;;23.70;17.73;;;5.00;94.20;;;3.43;98.35;97975.19;5090196;28;20510;-71
2021/10/29 03:10:02;;;;;;;26.13;17.30;;;4.90;94.60;;;3.42;98.04;97972.72;5087919;28;20524;-71
2021/10/29 03:12:30;;;;;;;25.03;18.40;;;4.90;94.70;;;3.42;98.30;97973.53;5090940;28;20985;-71
2021/10/29 03:14:57;;;;;;;27.33;19.73;;;4.90;94.60;;;3.59;97.49;97966.31;5087708;28;20468;-71
2021/10/29 03:17:23;;;;;;;23.77;18.80;;;5.00;95.00;;;3.44;97.97;97962.69;5087943;28;24339;-71
2021/10/29 03:19:50;;;;;;;27.40;18.97;;;4.90;94.90;;;3.52;98.21;97960.81;5087665;28;20492;-71
2021/10/29 03:22:19;;;;;;;27.97;19.53;;;4.90;95.00;;;3.33;98.98;97943.34;5092876;28;20943;-71
2021/10/29 03:24:46;;;;;;;34.93;22.67;;;4.90;95.50;;;3.28;99.09;97961.72;5092281;28;20472;-72
2021/10/29 03:27:13;;;;;;;31.80;20.67;;;4.90;96.20;;;3.39;99.11;97969.34;5087782;28;20506;-71
2021/10/29 03:29:40;;;;;;;34.03;22.10;;;4.90;96.50;;;3.24;100.00;97949.69;5090117;28;20849;-71
2021/10/29 03:32:08;;;;;;;30.87;21.50;;;4.80;97.30;;;3.31;99.98;97953.34;5092434;28;20501;-71
2021/10/29 03:34:36;;;;;;;31.57;21.57;;;4.80;98.30;;;3.58;99.86;97956.63;5092340;28;20466;-72
2021/10/29 03:37:07;;;;;;;35.87;21.23;;;4.90;98.00;;;3.30;100.00;97954.38;5117091;27;20490;-72
2021/10/29 03:39:39;;;;;;;31.77;22.10;;;4.90;97.20;;;3.35;99.98;97952.00;5090667;28;21001;-70
2021/10/29 03:42:14;;;;;;;27.77;19.57;;;4.80;97.10;;;3.21;99.88;97960.72;5091467;28;20470;-71
2021/10/29 03:44:48;;;;;;;31.57;21.70;;;4.80;96.10;;;3.21;99.98;97960.72;5089898;28;20510;-72
2021/10/29 03:47:17;;;;;;;31.90;21.80;;;4.70;97.30;;;3.24;99.49;97965.72;5089262;28;20455;-72
2021/10/29 03:49:48;;;;;;;28.57;20.20;;;4.70;97.00;;;3.25;99.50;97951.34;5090136;28;20457;-71
2021/10/29 03:52:18;;;;;;;24.13;18.27;;;4.70;96.30;;;3.28;99.04;97956.38;5090396;28;21332;-72
2021/10/29 03:54:51;;;;;;;28.63;19.30;;;4.80;95.80;;;3.29;99.59;97954.53;5089367;28;20449;-70
2021/10/29 03:57:24;;;;;;;33.60;21.40;;;4.70;96.70;;;3.20;99.33;97959.06;5122087;27;20440;-71
2021/10/29 03:59:51;;;;;;;31.93;20.83;;;4.70;95.90;;;3.24;99.38;97957.69;5087786;28;20955;-71
2021/10/29 04:02:19;;;;;;;28.83;18.53;;;4.70;96.40;;;3.33;98.95;97961.19;5089140;28;20464;-71
2021/10/29 04:04:46;;;;;;;24.80;17.87;;;4.80;97.20;;;3.21;98.63;97961.56;5090915;28;20552;-72
2021/10/29 04:07:14;;;;;;;28.33;21.50;;;4.70;95.60;;;3.34;98.44;97961.03;5089568;28;20509;-73
2021/10/29 04:09:42;;;;;;;24.97;18.67;;;4.80;94.90;;;3.11;98.88;97951.06;5089084;28;20458;-71
2021/10/29 04:12:12;;;;;;;22.30;17.20;;;4.70;95.30;;;3.19;98.77;97952.03;5090470;28;20463;-71
2021/10/29 04:14:42;;;;;;;23.60;18.03;;;4.70;96.50;;;3.13;98.94;97952.72;5090281;28;20465;-73
2021/10/29 04:17:09;;;;;;;24.17;17.57;;;4.60;95.20;;;3.03;98.78;97959.06;5086838;28;20450;-71
2021/10/29 04:19:36;;;;;;;25.03;18.80;;;4.60;95.60;;;2.96;100.00;97960.75;5087675;28;20971;-71
2021/10/29 04:22:03;;;;;;;24.47;18.30;;;4.50;96.90;;;3.13;99.31;97966.91;5089035;28;20888;-72
2021/10/29 04:24:30;;;;;;;23.07;16.93;;;4.60;96.60;;;2.97;99.22;97955.25;5088439;28;20985;-72
2021/10/29 04:26:59;;;;;;;23.33;17.63;;;4.50;96.10;;;2.94;98.36;97960.06;5089166;28;20459;-71
2021/10/29 04:29:35;;;;;;;23.77;18.53;;;4.60;95.00;;;2.90;99.44;97964.09;5090012;28;20458;-72
2021/10/29 04:32:02;;;;;;;22.47;16.97;;;4.50;95.70;;;2.89;99.66;97962.41;5083649;28;20452;-73
2021/10/29 04:34:30;;;;;;;24.00;16.53;;;4.50;95.70;;;2.83;99.32;97947.91;5090785;28;20521;-72
2021/10/29 04:36:59;;;;;;;22.40;16.67;;;4.40;96.50;;;2.89;99.06;97962.41;5088732;28;20483;-71
2021/10/29 04:39:27;;;;;;;25.37;17.87;;;4.40;96.20;;;3.06;99.83;97958.72;5087069;28;20464;-71
2021/10/29 04:41:55;;;;;;;18.83;15.30;;;4.40;97.60;;;3.20;99.63;97959.91;5085886;28;20525;-72
2021/10/29 04:44:24;;;;;;;18.30;14.80;;;4.70;99.90;;;3.49;99.94;97957.66;5121295;27;20459;-72
2021/10/29 04:46:53;;;;;;;14.63;12.13;;;4.80;99.90;;;3.11;96.49;97951.06;5085217;28;20452;-74
2021/10/29 04:49:20;;;;;;;19.87;14.03;;;4.70;92.00;;;2.72;96.99;97946.41;5089590;28;20444;-71
2021/10/29 04:51:47;;;;;;;22.60;16.20;;;4.40;91.70;;;3.21;98.59;97939.34;5085616;28;21040;-71
2021/10/29 04:54:14;;;;;;;20.67;15.80;;;4.50;97.30;;;3.11;97.22;97934.19;5087926;28;20487;-72
2021/10/29 04:56:43;;;;;;;16.03;13.13;;;4.60;93.30;;;2.80;95.88;97938.38;5083595;28;20464;-72
2021/10/29 04:59:11;;;;;;;20.80;15.03;;;4.40;91.60;;;2.58;98.72;97941.75;5086803;28;20444;-71
2021/10/29 05:01:38;;;;;;;22.17;16.07;;;4.20;93.90;;;2.92;97.70;97943.41;5086116;28;20478;-71
2021/10/29 05:04:06;;;;;;;22.30;16.40;;;4.30;96.10;;;3.04;97.29;97942.06;5089689;28;20551;-71
2021/10/29 05:06:33;;;;;;;22.20;16.60;;;4.40;94.40;;;2.74;96.40;97948.94;5083722;28;20464;-71
2021/10/29 05:09:00;;;;;;;27.60;19.30;;;4.40;91.70;;;2.43;97.53;97950.41;5087217;28;20483;-71
2021/10/29 05:11:29;;;;;;;23.77;17.73;;;4.10;92.70;;;2.66;97.58;97944.44;5088186;28;20489;-71
2021/10/29 05:13:56;;;;;;;23.80;18.70;;;4.10;93.80;;;2.74;98.65;97947.06;5087695;28;20539;-71
2021/10/29 05:16:23;;;;;;;22.10;17.97;;;4.20;96.70;;;2.76;97.78;97942.41;5086654;28;20538;-70
2021/10/29 05:18:50;;;;;;;24.80;17.00;;;4.20;95.00;;;2.49;98.11;97941.72;5089156;28;20529;-72
2021/10/29 05:21:18;;;;;;;27.17;20.73;;;4.10;93.80;;;2.55;98.46;97946.41;5085548;28;20460;-73
2021/10/29 05:23:45;;;;;;;27.23;20.40;;;4.10;94.10;;;2.36;98.70;97931.56;5091472;28;20573;-71
2021/10/29 05:26:12;;;;;;;30.40;21.27;;;4.00;94.50;;;2.24;99.49;97923.06;5087038;28;20571;-71
2021/10/29 05:28:40;;;;;;;32.47;21.23;;;3.90;96.20;;;2.34;99.96;97925.56;5083884;28;20480;-76
2021/10/29 05:31:07;;;;;;;30.80;20.97;;;3.90;97.80;;;2.38;100.00;97920.75;5081978;28;20461;-73
2021/10/29 05:33:34;;;;;;;32.10;20.97;;;3.90;97.70;;;2.73;100.00;97925.88;5084292;28;20454;-73
2021/10/29 05:36:02;;;;;;;31.27;21.23;;;4.10;99.90;;;2.82;98.72;97908.88;5086084;28;20450;-72
2021/10/29 05:38:30;;;;;;;33.57;20.20;;;4.40;97.50;;;2.75;98.73;97919.41;5085894;28;20516;-74
2021/10/29 05:40:59;;;;;;;29.33;20.50;;;4.30;95.00;;;2.83;99.20;97926.56;5121984;27;20495;-75
2021/10/29 05:43:26;;;;;;;34.33;21.87;;;4.30;97.70;;;2.35;99.58;97903.22;5087499;28;20838;-74
2021/10/29 05:45:53;;;;;;;31.63;19.67;;;4.10;95.90;;;2.61;100.00;97909.41;5079897;28;20516;-71
2021/10/29 05:48:20;;;;;;;39.20;22.73;;;4.10;99.00;;;2.50;99.95;97908.75;5083203;28;20448;-70
2021/10/29 05:50:49;;;;;;;27.33;19.80;;;4.10;96.70;;;2.76;98.84;97910.38;5084681;28;20437;-71
2021/10/29 05:53:32;;;;;;;30.67;20.20;;;4.20;96.30;;;2.78;98.35;97913.72;5083696;28;20491;-69
2021/10/29 05:56:01;;;;;;;33.10;20.57;;;4.30;95.40;;;2.89;97.39;97925.06;5086235;28;20454;-71
2021/10/29 05:58:28;;;;;;;26.47;20.00;;;4.40;93.70;;;2.41;98.44;97915.88;5083149;28;20981;-71
2021/10/29 06:00:55;;;;;;;28.13;20.40;;;4.10;93.70;;;2.41;98.84;97910.56;5083852;28;20456;-71
2021/10/29 06:03:22;;;;;;;30.07;19.67;;;4.00;94.50;;;2.14;99.42;97911.69;5082159;28;20469;-70
2021/10/29 06:05:49;;;;;;;39.40;20.33;;;3.80;94.60;;;2.20;99.86;97916.38;5113564;28;20504;-72
2021/10/29 06:08:17;;;;;;;39.67;21.97;;;3.80;96.20;;;2.07;100.00;97922.19;5098664;28;20467;-71
2021/10/29 06:10:44;;;;;;;29.20;22.17;;;3.70;97.30;;;2.00;100.00;97917.66;5102577;28;20462;-70
2021/10/29 06:13:12;;;;;;;36.53;22.60;;;3.60;98.40;;;2.00;100.00;97915.84;5085114;28;20477;-73
2021/10/29 06:15:42;;;;;;;39.80;21.87;;;3.60;99.90;;;2.02;100.00;97913.84;5082176;28;20460;-70
2021/10/29 06:18:11;;;;;;;39.93;23.30;;;3.60;99.90;;;2.06;100.00;97919.69;5083532;28;20480;-70
2021/10/29 06:20:39;;;;;;;34.00;22.30;;;3.60;99.90;;;2.23;100.00;97921.38;5092242;28;20536;-71
2021/10/29 06:23:07;;;;;;;33.83;23.20;;;3.70;99.30;;;2.26;100.00;97923.72;5088360;28;20994;-71
2021/10/29 06:25:41;;;;;;;34.77;22.30;;;3.80;98.50;;;2.25;100.00;97919.38;5088067;28;20545;-70
2021/10/29 06:28:13;;;;;;;35.43;23.73;;;3.80;97.60;;;2.40;100.00;97916.06;5088508;28;20880;-73
2021/10/29 06:30:44;;;;;;;37.90;23.97;;;3.80;99.90;;;2.81;100.00;97928.56;5089828;28;20456;-70
2021/10/29 06:33:14;;;;;;;31.53;21.10;;;4.10;99.90;;;3.05;100.00;97927.69;5089440;28;20472;-71
2021/10/29 06:35:42;;;;;;;32.00;23.73;;;4.30;99.90;;;2.81;97.88;97931.22;5085526;28;20580;-72
2021/10/29 06:38:10;;;;;;;33.43;23.17;;;4.30;94.30;;;2.51;98.65;97923.75;5112451;27;20495;-71
2021/10/29 06:40:41;;;;;;;29.33;21.20;;;4.20;93.60;;;2.74;98.51;97917.72;5088619;28;20472;-71
2021/10/29 06:43:12;;;;;;;29.27;21.77;;;4.20;94.80;;;2.67;97.75;97916.75;5082050;28;20501;-70
2021/10/29 06:48:29;;;;;;;30.47;23.80;;;4.10;95.40;;;2.48;98.89;97913.38;5072423;28;20460;-71
2021/10/29 06:59:16;;;;;;;35.90;22.97;;;4.20;95.00;;;2.64;97.78;97928.56;5088954;28;20451;-72
2021/10/29 07:01:49;;;;;;;30.60;23.40;;;4.30;93.70;;;2.77;97.77;97933.41;5084065;28;20458;-71
2021/10/29 07:40:07;;;;;;;33.87;25.37;;;4.60;93.90;;;3.27;97.35;97928.00;5114025;27;20456;-72
2021/10/29 07:42:41;;;;;;;36.03;26.70;;;4.70;93.30;;;3.53;96.43;97929.56;5087865;28;22286;-72
2021/10/29 07:45:10;;;;;;;36.40;26.30;;;4.90;93.00;;;3.57;95.25;97922.91;5081918;28;20540;-73
2021/10/29 07:47:38;;;;;;;34.80;24.30;;;5.00;92.00;;;3.32;94.72;97882.91;5083810;28;20475;-73
2021/10/29 07:50:11;;;;;;;37.87;26.00;;;5.10;91.30;;;3.85;95.99;97919.75;5082014;28;20500;-72
2021/10/29 07:52:39;;;;;;;36.60;25.80;;;5.10;92.70;;;3.75;94.39;97922.66;5092329;28;20930;-72
2021/10/29 07:55:09;;;;;;;39.30;27.60;;;5.20;91.10;;;3.53;95.24;97921.56;5080772;28;21280;-73
2021/10/29 07:57:37;;;;;;;44.73;27.90;;;5.10;91.40;;;3.34;95.55;97848.84;5087782;28;20880;-74
2021/10/29 08:00:07;;;;;;;36.20;27.13;;;5.20;92.30;;;3.75;94.79;97922.66;5087275;28;20466;-74
2021/10/29 08:02:34;;;;;;;42.93;29.57;;;5.20;91.80;;;3.49;96.17;97922.94;5102591;28;21033;-74
2021/10/29 08:05:02;;;;;;;44.33;28.63;;;5.10;92.20;;;3.60;96.48;97927.91;5086199;28;20460;-74
2021/10/29 08:07:32;;;;;;;41.87;29.57;;;5.00;93.10;;;3.67;95.38;97923.50;5085252;28;20467;-73
2021/10/29 08:10:01;;;;;;;41.33;29.00;;;5.20;92.00;;;4.10;96.07;97930.31;5081770;28;20497;-72
2021/10/29 08:12:28;;;;;;;46.20;30.00;;;5.30;93.30;;;4.33;93.35;97932.22;5081465;28;20530;-70
2021/10/29 08:14:56;;;;;;;42.43;30.60;;;5.50;91.60;;;4.40;92.50;97933.16;5086304;28;20460;-74
2021/10/29 08:17:23;;;;;;;43.20;27.90;;;5.70;90.10;;;3.95;93.80;97940.94;5084402;28;20457;-70
2021/10/29 08:19:50;;;;;;;41.83;30.20;;;5.60;90.10;;;3.83;94.63;97932.47;5082363;28;20556;-73
2021/10/29 08:22:18;;;;;;;40.23;28.50;;;5.40;90.80;;;4.12;94.49;97930.97;5080221;28;20836;-73
2021/10/29 08:24:46;;;;;;;41.30;29.17;;;5.50;91.70;;;4.01;94.71;97928.69;5088260;28;20466;-73
2021/10/29 08:27:14;;;;;;;51.03;32.47;;;5.50;91.10;;;3.81;95.38;97923.78;5085632;28;20983;-73
2021/10/29 08:29:41;;;;;;;44.23;31.17;;;5.40;91.40;;;3.88;95.63;97927.44;5084397;28;20464;-73
2021/10/29 08:32:12;;;;;;;42.87;30.83;;;5.40;91.80;;;4.05;95.22;97924.69;5080044;28;20610;-72
2021/10/29 08:34:39;;;;;;;40.90;29.00;;;5.50;91.30;;;4.23;94.39;97929.75;5083028;28;21044;-71
2021/10/29 08:37:08;;;;;;;39.27;26.57;;;5.60;91.20;;;4.74;92.90;97931.06;5084034;28;20516;-72
2021/10/29 08:39:38;;;;;;;42.30;28.80;;;5.90;91.40;;;4.25;93.06;97904.50;5087451;28;20982;-74
2021/10/29 08:42:08;;;;;;;36.30;27.90;;;5.90;89.40;;;4.45;93.04;97919.25;5085570;28;20504;-74
2021/10/29 08:44:36;;;;;;;43.87;29.93;;;5.90;88.50;;;4.40;93.09;97922.44;5078346;28;20456;-71
2021/10/29 08:47:05;;;;;;;42.80;29.00;;;5.90;89.00;;;4.90;93.08;97922.91;5082602;28;20464;-72
2021/10/29 08:49:34;;;;;;;36.77;26.33;;;6.00;91.50;;;4.93;90.32;97916.34;5080154;28;20532;-72
2021/10/29 08:52:02;;;;;;;39.37;29.87;;;6.20;87.50;;;4.72;91.06;97925.88;5081150;28;20600;-72
2021/10/29 08:54:30;;;;;;;36.10;27.53;;;6.20;86.40;;;4.54;91.42;97919.00;5080475;28;20448;-67
2021/10/29 08:56:58;;;;;;;38.30;29.37;;;6.10;86.50;;;4.65;91.45;97916.91;5095072;28;20452;-75
2021/10/29 08:59:29;;;;;;;39.50;27.83;;;6.10;87.50;;;4.72;91.11;97920.53;5081668;28;20480;-71
2021/10/29 09:02:02;;;;;;;36.77;28.63;;;6.20;87.50;;;4.58;92.16;97918.63;5085524;28;20473;-72
2021/10/29 09:04:45;;;;;;;44.03;31.07;;;6.20;87.00;;;4.73;91.86;97916.03;5083833;28;20501;-67
2021/10/29 09:07:24;;;;;;;39.03;28.40;;;6.10;89.10;;;4.73;91.51;97911.47;5085446;28;20453;-72
2021/10/29 09:10:16;;;;;;;37.30;27.60;;;6.20;88.60;;;5.37;89.54;97902.16;5082736;28;20836;-72
2021/10/29 09:32:37;;;;;;;33.67;27.93;;;7.30;82.00;;;5.99;85.55;97887.66;5097972;28;20467;-73
2021/10/29 09:35:09;;;;;;;36.33;28.77;;;7.40;81.40;;;6.05;85.54;97885.06;5075507;28;20466;-72
2021/10/29 09:37:57;;;;;;;32.93;26.40;;;7.40;81.30;;;5.96;85.68;97883.50;5078852;28;20473;-72
2021/10/29 09:40:26;;;;;;;38.00;29.13;;;7.30;82.00;;;6.23;84.95;97883.84;5076806;28;20459;-72
2021/10/29 09:42:55;;;;;;;36.20;28.93;;;7.50;81.00;;;6.18;84.20;97886.25;5081293;28;20486;-71
2021/10/29 09:45:27;;;;;;;34.90;28.17;;;7.60;80.60;;;6.11;84.76;97880.81;5084939;28;20916;-72
2021/10/29 09:48:14;;;;;;;32.57;27.07;;;7.50;80.30;;;6.35;84.62;97884.16;5115378;28;20453;-71
2021/10/29 09:50:50;;;;;;;37.80;28.20;;;7.60;80.60;;;6.26;84.42;97877.22;5113889;28;20464;-72
2021/10/29 09:56:11;;;;;;;33.97;27.00;;;7.70;79.60;;;5.98;85.22;97883.31;5089990;28;20979;-71
2021/10/29 09:58:42;;;;;;;33.50;28.97;;;7.60;79.60;;;6.58;83.67;97880.41;5085905;28;20469;-72
2021/10/29 10:01:09;;;;;;;35.57;27.50;;;7.90;80.00;;;7.12;81.19;97878.97;5086853;28;20453;-72
2021/10/29 10:03:40;;;;;;;35.13;28.00;;;8.20;79.10;;;6.57;82.29;97881.44;5101977;28;20466;-72
2021/10/29 10:06:08;;;;;;;37.17;28.27;;;8.00;77.90;;;6.72;82.77;97876.81;5084753;28;20468;-72
2021/10/29 10:08:35;;;;;;;34.73;28.90;;;8.00;78.70;;;6.85;82.12;97876.13;5085849;28;20510;-71
2021/10/29 10:11:03;;;;;;;34.03;27.87;;;8.20;78.10;;;7.33;79.61;97866.50;5086761;28;20495;-71
2021/10/29 10:13:32;;;;;;;35.13;26.87;;;8.40;77.70;;;7.54;79.93;97868.28;5089514;28;20456;-72
2021/10/29 10:16:02;;;;;;;38.03;27.40;;;8.40;78.10;;;7.18;80.38;97862.09;5099979;28;20457;-72
2021/10/29 10:18:30;;;;;;;37.30;28.87;;;8.40;77.20;;;7.42;79.51;97849.16;5119226;27;20455;-72
2021/10/29 10:21:01;;;;;;;34.83;28.03;;;8.50;77.00;;;7.16;79.82;97841.81;5085449;28;20555;-73
2021/10/29 10:23:32;;;;;;;34.63;28.27;;;8.50;76.20;;;6.92;80.95;97841.25;5084589;28;20525;-72
2021/10/29 10:26:19;;;;;;;30.00;25.73;;;8.40;76.50;;;7.06;81.40;97834.94;5089525;28;20524;-72
2021/10/29 10:29:07;;;;;;;34.17;27.30;;;8.30;77.20;;;6.97;81.71;97844.19;5089079;28;20508;-73
2021/10/29 10:43:14;;;;;;;29.90;26.13;;;9.10;74.50;;;7.66;78.25;97825.50;5084246;28;20489;-72
2021/10/29 10:45:50;;;;;;;33.37;27.33;;;8.90;74.50;;;7.82;78.24;97831.56;5087432;28;20459;-72
2021/10/29 10:48:25;;;;;;;32.47;25.73;;;9.10;74.60;;;7.94;77.27;97829.94;5088250;28;20483;-73
2021/10/29 10:50:58;;;;;;;29.37;25.10;;;9.20;73.90;;;7.80;78.68;97827.22;5088235;28;20891;-72
2021/10/29 10:53:43;;;;;;;33.30;27.50;;;9.00;74.50;;;7.77;78.02;97816.00;5081835;28;20478;-72
2021/10/29 10:59:27;;;;;;;35.40;29.37;;;9.30;73.50;;;8.31;75.53;97819.63;5083717;28;20455;-72
2021/10/29 11:07:27;;;;;;;32.80;25.80;;;9.80;71.20;;;8.16;76.62;97811.78;5076856;28;20478;-72
2021/10/29 11:10:06;;;;;;;31.43;27.00;;;9.70;71.40;;;7.85;77.72;97799.72;5081680;28;20526;-72
2021/10/29 11:13:11;;;;;;;33.03;26.63;;;9.30;72.60;;;7.72;78.55;97805.03;5082904;28;20450;-72
2021/10/29 11:15:39;;;;;;;34.10;28.20;;;9.10;73.40;;;8.06;77.35;97804.09;5083792;28;20482;-71
2021/10/29 11:18:30;;;;;;;32.27;27.10;;;9.20;73.70;;;7.95;78.03;97799.31;5085163;28;20473;-73
2021/10/29 11:21:21;;;;;;;35.10;28.60;;;9.10;73.70;;;8.26;77.41;97784.44;5089263;28;20513;-72
2021/10/29 11:23:59;;;;;;;35.70;29.97;;;9.30;73.80;;;8.53;75.76;97780.94;5086066;28;20467;-73
2021/10/29 11:26:30;;;;;;;37.83;29.13;;;9.60;72.50;;;8.51;75.55;97783.88;5086799;28;20551;-71
2021/10/29 11:29:00;;;;;;;33.27;25.63;;;9.70;72.10;;;8.81;74.36;97775.34;5086970;28;20487;-72
2021/10/29 11:31:29;;;;;;;30.67;27.00;;;9.80;71.90;;;8.92;74.18;97769.28;5087771;28;20504;-73
2021/10/29 11:34:00;;;;;;;32.63;26.60;;;10.00;70.40;;;9.11;72.91;97757.84;5086880;28;20567;-70
2021/10/29 11:36:31;;;;;;;33.47;27.87;;;10.10;69.70;;;9.18;73.47;97758.66;5085865;28;20499;-72
2021/10/29 11:38:59;;;;;;;35.77;28.17;;;10.20;69.80;;;8.71;75.17;97756.09;5083394;28;20459;-72
2021/10/29 11:41:28;;;;;;;33.50;29.07;;;10.00;69.80;;;8.99;73.33;97766.56;5088637;28;20585;-71
2021/10/29 11:44:02;;;;;;;33.67;27.97;;;10.10;69.40;;;9.22;73.79;97754.50;5084923;28;20828;-72
2021/10/29 11:46:31;;;;;;;31.47;25.93;;;10.20;69.60;;;8.59;75.27;97748.63;5085833;28;20452;-71
2021/10/29 11:49:04;;;;;;;35.90;30.03;;;10.00;69.20;;;8.56;74.98;97756.28;5084571;28;20455;-70
2021/10/29 11:51:32;;;;;;;40.90;30.17;;;10.00;69.20;;;8.61;75.25;97751.13;5100060;28;20533;-71
2021/10/29 11:54:05;;;;;;;37.50;30.17;;;9.90;70.70;;;8.61;75.58;97754.63;5085508;28;20460;-69
2021/10/29 11:56:37;;;;;;;36.00;29.57;;;9.70;71.50;;;9.15;73.91;97751.81;5082980;28;20471;-70